Time;durP1;ratioP1;P1;durP2;ratioP2;P2;SDS_P1;SDS_P2;PMS_P1;PMS_P2;Temp;Humidity;BMP_temperature;BMP_pressure;BME280_temperature;BME280_humidity;BME280_pressure;Samples;Min_cycle;Max_cycle;Signal;HPM_P1;HPM_P2
2023/11/10 00:02:02;;;;;;;;;;;;;;;9.00;61.03;99668.41;5080302;28;19924;-69
2023/11/10 00:04:28;;;;;;;;;;;;;;;9.01;60.53;99677.06;5096877;28;19923;-69
2023/11/10 00:06:54;;;;;;;;;;;;;;;9.02;60.95;99671.84;5096628;28;19919;-67
2023/11/10 00:09:20;;;;;;;;;;;;;;;9.04;60.87;99675.31;5081484;28;19969;-67
2023/11/10 00:11:46;;;;;;;;;;;;;;;9.06;60.66;99682.22;5077325;28;19927;-68
2023/11/10 00:14:13;;;;;;;;;;;;;;;9.10;60.99;99677.00;5079686;28;19974;-69
2023/11/10 00:16:42;;;;;;;;;;;;;;;9.16;60.42;99683.91;5096398;28;20375;-67
2023/11/10 00:19:08;;;;;;;;;;;;;;;9.14;60.53;99676.13;5095101;28;20007;-68
2023/11/10 00:21:36;;;;;;;;;;;;;;;9.14;60.86;99685.66;5076258;28;20490;-67
2023/11/10 00:24:05;;;;;;;;;;;;;;;9.15;60.63;99690.84;5105862;27;20442;-67
2023/11/10 00:26:34;;;;;;;;;;;;;;;9.12;60.23;99696.03;5078588;28;19959;-67
2023/11/10 00:29:00;;;;;;;;;;;;;;;9.06;60.53;99684.81;5078699;28;19924;-67
2023/11/10 00:31:26;;;;;;;;;;;;;;;9.07;60.91;99689.16;5109284;27;20022;-68
2023/11/10 00:33:52;;;;;;;;;;;;;;;9.07;60.89;99687.41;5077901;28;20015;-67
2023/11/10 00:36:18;;;;;;;;;;;;;;;9.09;60.43;99687.41;5096111;28;20042;-67
2023/11/10 00:38:47;;;;;;;;;;;;;;;9.10;60.76;99694.34;5099553;28;19973;-67
2023/11/10 00:41:14;;;;;;;;;;;;;;;9.13;60.59;99694.31;5067340;28;19935;-67
2023/11/10 00:43:40;;;;;;;;;;;;;;;9.13;60.63;99697.75;5099596;28;19928;-68
2023/11/10 00:46:07;;;;;;;;;;;;;;;9.12;60.55;99695.19;5069515;28;20429;-68
2023/11/10 00:48:33;;;;;;;;;;;;;;;9.12;60.83;99693.44;5077878;28;20138;-67
2023/11/10 00:50:59;;;;;;;;;;;;;;;9.14;60.57;99693.44;5095856;28;20024;-67
2023/11/10 00:53:26;;;;;;;;;;;;;;;9.13;60.91;99691.72;5075734;28;19920;-67
2023/11/10 00:55:53;;;;;;;;;;;;;;;9.16;60.46;99700.34;5087191;28;20395;-68
2023/11/10 00:58:22;;;;;;;;;;;;;;;9.16;60.93;99696.88;5108882;27;19939;-69
2023/11/10 01:00:50;;;;;;;;;;;;;;;9.19;60.46;99694.28;5077831;28;19924;-69
2023/11/10 01:03:16;;;;;;;;;;;;;;;9.20;60.67;99701.19;5078004;28;20295;-68
2023/11/10 01:05:45;;;;;;;;;;;;;;;9.21;60.97;99700.31;5064273;28;19970;-69
2023/11/10 01:08:11;;;;;;;;;;;;;;;9.21;61.03;99700.31;5079702;28;19931;-70
2023/11/10 01:10:37;;;;;;;;;;;;;;;9.17;60.48;99696.88;5077198;28;19924;-69
2023/11/10 01:13:03;;;;;;;;;;;;;;;9.22;61.08;99701.19;5093521;28;19920;-69
2023/11/10 01:15:30;;;;;;;;;;;;;;;9.19;60.63;99704.66;5093497;28;20375;-69
2023/11/10 01:17:56;;;;;;;;;;;;;;;9.18;60.88;99710.72;5091973;28;19920;-69
2023/11/10 01:20:22;;;;;;;;;;;;;;;9.14;60.62;99711.63;5087738;28;19935;-70
2023/11/10 01:22:48;;;;;;;;;;;;;;;9.11;60.56;99717.66;5069314;28;19966;-69
2023/11/10 01:25:14;;;;;;;;;;;;;;;9.06;60.74;99715.97;5094606;28;19967;-69
2023/11/10 01:27:41;;;;;;;;;;;;;;;9.06;60.67;99721.16;5096638;28;20027;-70
2023/11/10 01:30:07;;;;;;;;;;;;;;;9.10;61.09;99720.28;5090752;28;19932;-69
2023/11/10 01:32:36;;;;;;;;;;;;;;;9.08;61.20;99722.03;5076109;28;20270;-69
2023/11/10 01:35:02;;;;;;;;;;;;;;;9.07;61.21;99720.28;5093552;28;19930;-70
2023/11/10 01:37:30;;;;;;;;;;;;;;;9.09;61.43;99718.56;5095320;28;20307;-70
2023/11/10 01:39:56;;;;;;;;;;;;;;;9.09;61.11;99726.34;5078011;28;19931;-71
2023/11/10 01:42:46;;;;;;;;;;;;;;;9.09;61.49;99724.59;5093729;28;20293;-69
2023/11/10 01:45:11;;;;;;;;;;;;;;;9.11;61.10;99727.22;5067661;28;19950;-68
2023/11/10 01:47:39;;;;;;;;;;;;;;;9.15;61.02;99727.19;5123808;27;19923;-69
2023/11/10 01:50:05;;;;;;;;;;;;;;;9.15;61.30;99728.94;5125743;27;20404;-70
2023/11/10 01:52:31;;;;;;;;;;;;;;;9.13;61.64;99731.50;5076238;28;20390;-68
2023/11/10 01:54:58;;;;;;;;;;;;;;;9.18;61.59;99727.16;5095119;28;19919;-67
2023/11/10 01:57:24;;;;;;;;;;;;;;;9.17;61.51;99733.22;5105653;27;19961;-68
2023/11/10 01:59:50;;;;;;;;;;;;;;;9.21;61.47;99735.81;5093616;28;20387;-69
2023/11/10 02:02:16;;;;;;;;;;;;;;;9.26;61.27;99732.31;5055959;28;19927;-68
2023/11/10 02:04:42;;;;;;;;;;;;;;;9.29;61.55;99734.91;5105845;27;20412;-67
2023/11/10 02:07:08;;;;;;;;;;;;;;;9.30;61.75;99728.84;5081424;28;20407;-68
2023/11/10 02:09:35;;;;;;;;;;;;;;;9.30;61.34;99728.84;5075734;28;20266;-69
2023/11/10 02:12:01;;;;;;;;;;;;;;;9.33;61.67;99731.44;5090767;28;20417;-68
2023/11/10 02:14:27;;;;;;;;;;;;;;;9.30;61.63;99731.44;5091499;28;19927;-68
2023/11/10 02:16:53;;;;;;;;;;;;;;;9.34;61.84;99734.88;5106173;27;19924;-69
2023/11/10 02:19:19;;;;;;;;;;;;;;;9.32;61.42;99742.69;5103677;27;20004;-69
2023/11/10 02:21:47;;;;;;;;;;;;;;;9.27;61.50;99741.84;5103956;27;20369;-68
2023/11/10 02:24:14;;;;;;;;;;;;;;;9.25;61.62;99745.31;5092668;28;19924;-68
2023/11/10 02:26:40;;;;;;;;;;;;;;;9.22;61.73;99748.78;5103261;27;19924;-68
2023/11/10 02:29:07;;;;;;;;;;;;;;;9.26;62.05;99758.28;5093794;28;19927;-68
2023/11/10 02:31:36;;;;;;;;;;;;;;;9.29;61.40;99763.47;5059455;28;19972;-69
2023/11/10 02:34:02;;;;;;;;;;;;;;;9.28;61.54;99771.25;5123484;27;19919;-68
2023/11/10 02:36:32;;;;;;;;;;;;;;;9.21;61.65;99765.22;5106353;27;20289;-68
2023/11/10 02:38:58;;;;;;;;;;;;;;;9.19;61.67;99773.03;5063382;28;20009;-67
2023/11/10 02:41:24;;;;;;;;;;;;;;;9.20;62.23;99771.28;5082027;28;19920;-69
2023/11/10 02:43:49;;;;;;;;;;;;;;;9.17;61.88;99777.38;5094026;28;20363;-68
2023/11/10 02:46:15;;;;;;;;;;;;;;;9.20;62.07;99773.88;5074761;28;19924;-68
2023/11/10 02:48:41;;;;;;;;;;;;;;;9.19;62.37;99775.63;5089537;28;20329;-67
2023/11/10 02:51:07;;;;;;;;;;;;;;;9.17;62.21;99768.69;5075897;28;19972;-67
2023/11/10 02:53:33;;;;;;;;;;;;;;;9.18;62.36;99773.91;5094025;28;20412;-69
2023/11/10 02:56:01;;;;;;;;;;;;;;;9.23;62.29;99773.88;5094609;28;19932;-68
2023/11/10 02:58:27;;;;;;;;;;;;;;;9.23;62.48;99778.22;5097789;28;19919;-68
2023/11/10 03:00:53;;;;;;;;;;;;;;;9.24;62.82;99770.41;5075348;28;19924;-70
2023/11/10 03:03:19;;;;;;;;;;;;;;;9.26;62.46;99775.63;5075255;28;19928;-69
2023/11/10 03:05:45;;;;;;;;;;;;;;;9.22;62.70;99772.16;5093879;28;20301;-70
2023/11/10 03:08:11;;;;;;;;;;;;;;;9.25;62.51;99782.53;5060315;28;20085;-69
2023/11/10 03:10:37;;;;;;;;;;;;;;;9.22;62.41;99782.53;5078071;28;19947;-70
2023/11/10 03:13:03;;;;;;;;;;;;;;;9.23;62.61;99773.03;5107443;27;20381;-68
2023/11/10 03:15:29;;;;;;;;;;;;;;;9.28;62.55;99776.44;5091463;28;19942;-69
2023/11/10 03:17:55;;;;;;;;;;;;;;;9.26;63.00;99786.84;5050908;28;20035;-68
2023/11/10 03:20:23;;;;;;;;;;;;;;;9.23;62.67;99784.25;5073584;28;20014;-67
2023/11/10 03:22:49;;;;;;;;;;;;;;;9.22;62.40;99777.34;5067034;28;19939;-68
2023/11/10 03:25:15;;;;;;;;;;;;;;;9.28;62.98;99781.63;5090184;28;19999;-67
2023/11/10 03:27:41;;;;;;;;;;;;;;;9.30;63.05;99783.38;5090284;28;19967;-70
2023/11/10 03:30:08;;;;;;;;;;;;;;;9.29;62.96;99783.38;5067022;28;19982;-67
2023/11/10 03:32:35;;;;;;;;;;;;;;;9.31;63.15;99795.50;5088652;28;19931;-67
2023/11/10 03:35:01;;;;;;;;;;;;;;;9.30;62.96;99791.16;5092416;28;19924;-67
2023/11/10 03:37:29;;;;;;;;;;;;;;;9.27;62.62;99790.34;5052391;28;20354;-67
2023/11/10 03:39:55;;;;;;;;;;;;;;;9.20;62.63;99792.06;5084672;28;20010;-66
2023/11/10 03:42:21;;;;;;;;;;;;;;;9.18;62.98;99799.88;5072240;28;20526;-67
2023/11/10 03:44:47;;;;;;;;;;;;;;;9.08;63.10;99798.16;5081438;28;19931;-67
2023/11/10 03:47:13;;;;;;;;;;;;;;;9.02;63.09;99800.78;5093709;28;19924;-68
2023/11/10 03:49:40;;;;;;;;;;;;;;;9.03;62.87;99805.97;5094172;28;21489;-68
2023/11/10 03:52:06;;;;;;;;;;;;;;;9.01;63.20;99812.03;5098485;28;19923;-67
2023/11/10 03:54:32;;;;;;;;;;;;;;;9.01;63.42;99809.44;5091562;28;20377;-68
2023/11/10 03:56:58;;;;;;;;;;;;;;;9.03;63.37;99813.75;5076639;28;19919;-66
2023/11/10 03:59:24;;;;;;;;;;;;;;;9.03;62.91;99816.34;5093860;28;19973;-68
2023/11/10 04:01:50;;;;;;;;;;;;;;;9.03;63.42;99821.53;5094272;28;19920;-67
2023/11/10 04:04:16;;;;;;;;;;;;;;;9.03;63.38;99823.28;5057297;28;20005;-67
2023/11/10 04:06:42;;;;;;;;;;;;;;;9.01;62.99;99825.88;5058691;28;19924;-67
2023/11/10 04:09:08;;;;;;;;;;;;;;;8.96;63.29;99832.78;5093205;28;19973;-66
2023/11/10 04:11:34;;;;;;;;;;;;;;;8.96;63.19;99842.31;5091394;28;19928;-67
2023/11/10 04:14:00;;;;;;;;;;;;;;;8.92;63.27;99831.09;5092337;28;19923;-67
2023/11/10 04:16:26;;;;;;;;;;;;;;;8.86;63.01;99828.50;5090644;28;19939;-67
2023/11/10 04:18:53;;;;;;;;;;;;;;;8.76;63.22;99832.84;5074300;28;19927;-67
2023/11/10 04:21:20;;;;;;;;;;;;;;;8.71;63.34;99832.84;5068614;28;20127;-67
2023/11/10 04:23:46;;;;;;;;;;;;;;;8.63;62.74;99831.97;5092483;28;20023;-67
2023/11/10 04:26:13;;;;;;;;;;;;;;;8.55;63.30;99844.06;5078110;28;20026;-67
2023/11/10 04:28:42;;;;;;;;;;;;;;;8.46;63.43;99841.47;5076421;28;19931;-68
2023/11/10 04:31:14;;;;;;;;;;;;;;;8.46;63.64;99852.69;5094294;28;19980;-67
2023/11/10 04:33:40;;;;;;;;;;;;;;;8.39;63.38;99843.16;5073815;28;20028;-66
2023/11/10 04:36:06;;;;;;;;;;;;;;;8.47;63.85;99850.97;5093229;28;20136;-66
2023/11/10 04:38:35;;;;;;;;;;;;;;;8.55;63.57;99849.25;5083509;28;19937;-66
2023/11/10 04:41:04;;;;;;;;;;;;;;;8.61;63.69;99856.19;5062746;28;20347;-67
2023/11/10 04:43:30;;;;;;;;;;;;;;;8.66;63.55;99863.09;5060900;28;19928;-67
2023/11/10 04:45:55;;;;;;;;;;;;;;;8.69;63.85;99860.50;5078082;28;19919;-67
2023/11/10 04:48:22;;;;;;;;;;;;;;;8.75;63.71;99862.25;5078823;28;19924;-68
2023/11/10 04:50:47;;;;;;;;;;;;;;;8.79;63.41;99860.50;5095841;28;19963;-68
2023/11/10 04:53:14;;;;;;;;;;;;;;;8.80;63.35;99863.09;5126330;27;19938;-67
2023/11/10 04:55:40;;;;;;;;;;;;;;;8.82;63.60;99865.69;5111857;27;19947;-68
2023/11/10 04:58:06;;;;;;;;;;;;;;;8.80;63.57;99872.59;5080946;28;20266;-68
2023/11/10 05:00:33;;;;;;;;;;;;;;;8.74;63.01;99878.66;5094076;28;20008;-67
2023/11/10 05:03:02;;;;;;;;;;;;;;;8.68;63.30;99882.13;5095242;28;19924;-68
2023/11/10 05:05:28;;;;;;;;;;;;;;;8.68;63.09;99871.75;5079670;28;20329;-67
2023/11/10 05:07:54;;;;;;;;;;;;;;;8.65;63.40;99884.72;5093726;28;19924;-68
2023/11/10 05:10:19;;;;;;;;;;;;;;;8.64;63.38;99888.19;5083684;28;19994;-69
2023/11/10 05:12:46;;;;;;;;;;;;;;;8.70;63.64;99889.91;5095949;28;19965;-68
2023/11/10 05:15:13;;;;;;;;;;;;;;;8.71;63.81;99899.41;5105845;27;19924;-69
2023/11/10 05:17:39;;;;;;;;;;;;;;;8.72;63.57;99903.75;5093158;28;19932;-67
2023/11/10 05:20:09;;;;;;;;;;;;;;;8.69;63.39;99907.22;5095576;28;19924;-68
2023/11/10 05:22:35;;;;;;;;;;;;;;;8.68;63.08;99905.47;5069834;28;19924;-69
2023/11/10 05:25:04;;;;;;;;;;;;;;;8.69;63.40;99917.59;5094519;28;19939;-69
2023/11/10 05:27:30;;;;;;;;;;;;;;;8.72;63.58;99909.78;5070093;28;20130;-69
2023/11/10 05:29:56;;;;;;;;;;;;;;;8.67;63.37;99915.84;5094536;28;19977;-70
2023/11/10 05:32:25;;;;;;;;;;;;;;;8.64;63.23;99921.03;5076496;28;19930;-69
2023/11/10 05:34:54;;;;;;;;;;;;;;;8.66;63.02;99932.25;5125320;27;19923;-70
2023/11/10 05:37:24;;;;;;;;;;;;;;;8.67;63.02;99927.09;5083308;28;19977;-69
2023/11/10 05:39:53;;;;;;;;;;;;;;;8.71;63.16;99931.44;5095120;28;19920;-69
2023/11/10 05:42:22;;;;;;;;;;;;;;;8.72;63.21;99933.13;5078569;28;19947;-68
2023/11/10 05:44:49;;;;;;;;;;;;;;;8.77;63.25;99935.75;5099041;28;19979;-69
2023/11/10 05:47:15;;;;;;;;;;;;;;;8.75;63.23;99937.47;5077232;28;19924;-69
2023/11/10 05:49:41;;;;;;;;;;;;;;;8.76;62.55;99953.91;5094541;28;19924;-69
2023/11/10 05:52:09;;;;;;;;;;;;;;;8.78;62.78;99953.06;5076508;28;19923;-68
2023/11/10 05:54:35;;;;;;;;;;;;;;;8.90;62.43;99947.00;5110928;27;19927;-72
2023/11/10 05:57:01;;;;;;;;;;;;;;;9.04;62.47;99955.66;5082415;28;19930;-69
2023/11/10 05:59:27;;;;;;;;;;;;;;;9.19;62.75;99956.50;5057756;28;19920;-69
2023/11/10 06:01:56;;;;;;;;;;;;;;;9.30;62.12;99959.97;5077597;28;20393;-69
2023/11/10 06:04:23;;;;;;;;;;;;;;;9.53;62.44;99947.78;5094003;28;19923;-71
2023/11/10 06:06:49;;;;;;;;;;;;;;;10.13;62.02;99955.41;5089718;28;19924;-72
2023/11/10 06:09:22;;;;;;;;;;;;;;;11.06;61.63;99943.53;5092399;28;19924;-70
2023/11/10 06:11:52;;;;;;;;;;;;;;;11.97;60.70;99949.56;5075958;28;19924;-72
2023/11/10 06:14:17;;;;;;;;;;;;;;;12.02;59.25;99945.19;5091810;28;19923;-71
2023/11/10 06:16:44;;;;;;;;;;;;;;;11.56;58.99;99957.00;5092440;28;19937;-71
2023/11/10 06:19:10;;;;;;;;;;;;;;;11.09;58.86;99959.16;5107727;27;19920;-71
2023/11/10 06:21:36;;;;;;;;;;;;;;;10.80;59.02;99963.72;5058614;28;20381;-71
2023/11/10 06:24:03;;;;;;;;;;;;;;;10.70;58.82;99968.13;5077841;28;19931;-71
2023/11/10 06:26:30;;;;;;;;;;;;;;;10.59;58.82;99975.16;5062147;28;19920;-71
2023/11/10 06:28:56;;;;;;;;;;;;;;;10.51;59.05;99972.56;5064929;28;19928;-71
2023/11/10 06:31:23;;;;;;;;;;;;;;;10.45;59.27;99975.22;5090938;28;20020;-72
2023/11/10 06:33:49;;;;;;;;;;;;;;;10.35;58.67;99973.50;5062546;28;20487;-70
2023/11/10 06:36:16;;;;;;;;;;;;;;;10.23;59.05;99977.91;5077880;28;20004;-70
2023/11/10 06:38:46;;;;;;;;;;;;;;;10.18;59.37;99983.97;5067065;28;20095;-70
2023/11/10 06:41:12;;;;;;;;;;;;;;;10.17;59.49;99990.91;5073231;28;19926;-70
2023/11/10 06:43:39;;;;;;;;;;;;;;;10.17;58.83;99997.84;5061008;28;19930;-71
2023/11/10 06:46:09;;;;;;;;;;;;;;;10.09;59.16;99996.16;5093897;28;19927;-71
2023/11/10 06:48:36;;;;;;;;;;;;;;;10.00;59.11;100000.53;5075305;28;19928;-68
2023/11/10 06:51:02;;;;;;;;;;;;;;;9.98;59.30;99999.66;5082418;28;19919;-69
2023/11/10 06:53:29;;;;;;;;;;;;;;;9.73;58.14;100008.38;5082918;28;19942;-69
2023/11/10 06:55:55;;;;;;;;;;;;;;;9.46;58.94;100012.75;5093585;28;19933;-69
2023/11/10 06:58:22;;;;;;;;;;;;;;;9.34;59.14;100017.94;5092078;28;19931;-70
2023/11/10 07:00:49;;;;;;;;;;;;;;;9.31;59.52;100015.34;5092908;28;20018;-68
2023/11/10 07:03:17;;;;;;;;;;;;;;;9.41;59.65;100022.28;5058845;28;19939;-69
2023/11/10 07:05:43;;;;;;;;;;;;;;;9.42;59.62;100030.94;5096757;28;19924;-69
2023/11/10 07:08:11;;;;;;;;;;;;;;;9.48;58.96;100029.22;5094619;28;20446;-69
2023/11/10 07:10:44;;;;;;;;;;;;;;;9.61;59.57;100027.44;5094353;28;19927;-67
2023/11/10 07:13:10;;;;;;;;;;;;;;;9.80;58.67;100020.50;5075627;28;19927;-69
2023/11/10 07:15:37;;;;;;;;;;;;;;;9.99;58.98;100025.63;5073360;28;19919;-70
2023/11/10 07:18:02;;;;;;;;;;;;;;;10.27;58.90;100022.06;5089850;28;19919;-69
2023/11/10 07:20:30;;;;;;;;;;;;;;;10.69;58.20;100014.97;5094837;28;19943;-69
2023/11/10 07:22:59;;;;;;;;;;;;;;;10.94;58.11;100022.63;5090873;28;19926;-69
2023/11/10 07:25:25;;;;;;;;;;;;;;;11.13;57.72;100023.34;5092953;28;20386;-69
2023/11/10 07:27:52;;;;;;;;;;;;;;;11.19;56.90;100028.53;5076548;28;20407;-72
2023/11/10 07:30:18;;;;;;;;;;;;;;;11.23;56.78;100021.53;5109955;28;19919;-69
2023/11/10 07:32:44;;;;;;;;;;;;;;;11.41;56.66;100020.53;5090623;28;19985;-71
2023/11/10 07:35:11;;;;;;;;;;;;;;;11.35;55.88;100024.06;5092775;28;19923;-70
2023/11/10 07:37:39;;;;;;;;;;;;;;;10.95;55.60;100034.75;5091759;28;19971;-70
2023/11/10 07:40:10;;;;;;;;;;;;;;;10.72;56.18;100037.50;5095254;28;19920;-71
2023/11/10 07:42:36;;;;;;;;;;;;;;;10.38;55.89;100043.72;5075289;28;19977;-71
2023/11/10 07:45:02;;;;;;;;;;;;;;;10.20;56.83;100042.91;5089697;28;20344;-71
2023/11/10 07:47:30;;;;;;;;;;;;;;;10.08;56.31;100048.16;5066014;28;19950;-69
2023/11/10 07:49:56;;;;;;;;;;;;;;;9.97;56.84;100062.91;5123500;27;20407;-69
2023/11/10 07:52:24;;;;;;;;;;;;;;;9.81;57.00;100055.16;5070787;28;19920;-70
2023/11/10 07:54:50;;;;;;;;;;;;;;;9.72;57.27;100066.41;5097140;28;19927;-69
2023/11/10 07:57:16;;;;;;;;;;;;;;;9.61;56.82;100068.16;5062629;28;20079;-69
2023/11/10 07:59:42;;;;;;;;;;;;;;;9.56;56.69;100064.69;5128092;27;19991;-69
2023/11/10 08:02:07;;;;;;;;;;;;;;;9.47;57.29;100074.25;5095667;28;21190;-69
2023/11/10 08:04:36;;;;;;;;;;;;;;;9.28;57.03;100075.94;5084801;28;19981;-68
2023/11/10 08:07:02;;;;;;;;;;;;;;;9.11;57.40;100077.66;5094795;28;19930;-70
2023/11/10 08:09:28;;;;;;;;;;;;;;;9.04;57.50;100072.47;5080766;28;19919;-69
2023/11/10 08:11:54;;;;;;;;;;;;;;;8.95;57.24;100079.38;5058981;28;19927;-69
2023/11/10 08:14:19;;;;;;;;;;;;;;;9.00;57.90;100081.09;5098193;28;20009;-69
2023/11/10 08:16:45;;;;;;;;;;;;;;;9.02;57.74;100081.13;5067743;28;20406;-68
2023/11/10 08:19:11;;;;;;;;;;;;;;;8.99;57.82;100084.56;5094953;28;19923;-69
2023/11/10 08:21:37;;;;;;;;;;;;;;;8.96;57.58;100076.75;5097180;27;19920;-70
2023/11/10 08:24:03;;;;;;;;;;;;;;;8.97;58.14;100077.66;5093617;28;19919;-69
2023/11/10 08:26:29;;;;;;;;;;;;;;;9.03;58.38;100072.47;5080490;28;19920;-69
2023/11/10 08:28:55;;;;;;;;;;;;;;;9.12;57.57;100082.00;5094616;28;19939;-68
2023/11/10 08:31:22;;;;;;;;;;;;;;;9.29;58.06;100069.91;5094862;28;19953;-69
2023/11/10 08:33:48;;;;;;;;;;;;;;;9.38;57.26;100079.41;5111947;27;20491;-70
2023/11/10 08:36:14;;;;;;;;;;;;;;;9.63;57.81;100076.81;5090385;28;20370;-68
2023/11/10 08:38:40;;;;;;;;;;;;;;;9.72;57.22;100078.56;5089349;28;20100;-71
2023/11/10 08:41:05;;;;;;;;;;;;;;;9.79;57.24;100086.34;5095287;28;19964;-69
2023/11/10 08:43:32;;;;;;;;;;;;;;;9.83;57.01;100079.38;5093561;28;19964;-68
2023/11/10 08:45:58;;;;;;;;;;;;;;;9.70;56.88;100080.28;5067810;28;21062;-69
2023/11/10 08:48:24;;;;;;;;;;;;;;;9.57;56.65;100079.41;5091536;28;19939;-69
2023/11/10 08:50:50;;;;;;;;;;;;;;;9.41;56.81;100083.75;5091490;28;19987;-71
2023/11/10 08:53:15;;;;;;;;;;;;;;;9.23;57.24;100082.00;5093039;28;20413;-70
2023/11/10 08:55:41;;;;;;;;;;;;;;;9.08;56.97;100090.66;5075576;28;19924;-70
2023/11/10 08:58:07;;;;;;;;;;;;;;;9.00;57.15;100091.47;5128945;27;19926;-69
2023/11/10 09:00:33;;;;;;;;;;;;;;;8.94;57.45;100090.59;5094768;28;19947;-70
2023/11/10 09:02:59;;;;;;;;;;;;;;;8.86;57.74;100085.41;5093831;28;19982;-71
2023/11/10 09:05:26;;;;;;;;;;;;;;;8.85;57.94;100099.25;5073373;28;19954;-71
2023/11/10 09:07:51;;;;;;;;;;;;;;;8.94;58.21;100088.88;5075869;28;19919;-71
2023/11/10 09:10:18;;;;;;;;;;;;;;;9.12;57.47;100088.03;5124558;27;19919;-70
2023/11/10 09:12:48;;;;;;;;;;;;;;;9.26;58.21;100077.69;5086242;28;19931;-70
2023/11/10 09:15:14;;;;;;;;;;;;;;;9.82;58.50;100082.00;5092698;28;19927;-70
2023/11/10 09:17:44;;;;;;;;;;;;;;;10.10;57.64;100081.09;5077741;28;20412;-69
2023/11/10 09:20:10;;;;;;;;;;;;;;;10.23;57.00;100078.44;5106750;27;20378;-71
2023/11/10 09:22:36;;;;;;;;;;;;;;;10.29;56.89;100074.94;5089854;28;19924;-70
2023/11/10 09:25:02;;;;;;;;;;;;;;;10.20;56.64;100073.25;5110349;27;19996;-70
2023/11/10 09:27:29;;;;;;;;;;;;;;;10.14;56.66;100073.28;5092739;28;19959;-70
2023/11/10 09:29:54;;;;;;;;;;;;;;;10.11;56.26;100079.34;5095884;28;19967;-70
2023/11/10 09:32:20;;;;;;;;;;;;;;;9.98;56.05;100078.50;5094527;28;19924;-70
2023/11/10 09:34:46;;;;;;;;;;;;;;;9.82;56.37;100084.59;5077806;28;20334;-70
2023/11/10 09:37:12;;;;;;;;;;;;;;;9.58;56.59;100081.16;5078038;28;19919;-74
2023/11/10 09:39:37;;;;;;;;;;;;;;;9.46;56.85;100084.63;5094608;28;19961;-73
2023/11/10 09:42:07;;;;;;;;;;;;;;;9.46;56.87;100087.22;5094247;28;20018;-70
2023/11/10 09:44:38;;;;;;;;;;;;;;;9.43;56.88;100089.81;5100225;28;19963;-70
2023/11/10 09:47:05;;;;;;;;;;;;;;;9.37;57.31;100088.06;5094378;28;20625;-70
2023/11/10 09:49:34;;;;;;;;;;;;;;;9.38;57.59;100084.63;5091800;28;20682;-73
2023/11/10 09:52:01;;;;;;;;;;;;;;;9.50;57.59;100091.53;5095573;28;19974;-69
2023/11/10 09:54:27;;;;;;;;;;;;;;;9.60;57.34;100084.63;5093266;28;19919;-69
2023/11/10 09:56:56;;;;;;;;;;;;;;;9.67;57.87;100088.06;5094970;28;20023;-70
2023/11/10 09:59:25;;;;;;;;;;;;;;;9.65;57.20;100088.09;5110415;27;19931;-70
2023/11/10 10:01:51;;;;;;;;;;;;;;;9.62;57.33;100088.09;5096237;27;20375;-70
2023/11/10 10:04:17;;;;;;;;;;;;;;;9.50;57.53;100094.16;5098749;28;19924;-68
2023/11/10 10:06:44;;;;;;;;;;;;;;;9.44;56.97;100094.13;5081948;28;20538;-69
2023/11/10 10:09:10;;;;;;;;;;;;;;;9.30;57.40;100092.41;5077285;28;19924;-68
2023/11/10 10:11:36;;;;;;;;;;;;;;;9.27;57.74;100094.16;5089692;28;20015;-69
2023/11/10 10:14:02;;;;;;;;;;;;;;;9.22;57.50;100088.06;5090564;28;20040;-68
2023/11/10 10:16:28;;;;;;;;;;;;;;;9.20;57.50;100088.06;5094664;28;19920;-69
2023/11/10 10:18:55;;;;;;;;;;;;;;;9.15;57.62;100090.66;5092061;28;19927;-69
2023/11/10 10:21:21;;;;;;;;;;;;;;;9.06;57.49;100089.78;5110902;27;19923;-69
2023/11/10 10:23:50;;;;;;;;;;;;;;;8.92;58.32;100094.94;5091899;28;19931;-69
2023/11/10 10:26:16;;;;;;;;;;;;;;;8.87;58.25;100097.53;5082722;28;20051;-69
2023/11/10 10:28:45;;;;;;;;;;;;;;;8.89;58.25;100095.78;5095331;28;20035;-70
2023/11/10 10:31:11;;;;;;;;;;;;;;;8.98;58.95;100097.53;5089925;28;20018;-70
2023/11/10 10:33:37;;;;;;;;;;;;;;;9.07;58.97;100099.28;5093367;28;20295;-70
2023/11/10 10:36:03;;;;;;;;;;;;;;;9.13;58.67;100099.31;5091507;28;19995;-68
2023/11/10 10:38:31;;;;;;;;;;;;;;;9.17;58.60;100096.72;5076904;28;20386;-69
2023/11/10 10:40:59;;;;;;;;;;;;;;;9.17;58.43;100098.44;5094653;28;19919;-69
2023/11/10 10:43:25;;;;;;;;;;;;;;;9.15;58.43;100103.63;5122753;27;20402;-71
2023/11/10 10:45:51;;;;;;;;;;;;;;;9.11;58.66;100095.84;5110259;27;19924;-70
2023/11/10 10:48:17;;;;;;;;;;;;;;;9.19;58.81;100105.38;5065426;28;19960;-71
2023/11/10 10:50:43;;;;;;;;;;;;;;;9.32;58.76;100105.38;5123275;27;19967;-69
2023/11/10 10:53:09;;;;;;;;;;;;;;;9.34;58.46;100111.44;5093736;28;20277;-69
2023/11/10 10:55:37;;;;;;;;;;;;;;;9.27;58.37;100112.31;5090171;28;20022;-69
2023/11/10 10:58:03;;;;;;;;;;;;;;;9.23;58.66;100110.59;5093260;28;19957;-69
2023/11/10 11:00:31;;;;;;;;;;;;;;;9.24;58.92;100117.50;5095322;28;19919;-69
2023/11/10 11:03:09;;;;;;;;;;;;;;;9.22;59.23;100112.28;5091989;28;20019;-70
2023/11/10 11:05:44;;;;;;;;;;;;;;;9.28;58.88;100114.03;5069253;28;19927;-68
2023/11/10 11:08:14;;;;;;;;;;;;;;;9.23;58.82;100116.63;5083921;28;19920;-69
2023/11/10 11:10:41;;;;;;;;;;;;;;;9.27;59.14;100112.31;5081197;28;19971;-68
2023/11/10 11:13:19;;;;;;;;;;;;;;;9.31;58.83;100119.22;5093632;28;19958;-69
2023/11/10 11:16:03;;;;;;;;;;;;;;;9.27;58.97;100123.56;5054604;28;19920;-69
2023/11/10 11:18:48;;;;;;;;;;;;;;;9.25;58.88;100122.69;5111108;27;19927;-69
2023/11/10 11:21:15;;;;;;;;;;;;;;;9.28;59.42;100127.00;5074884;28;19924;-70
2023/11/10 11:23:41;;;;;;;;;;;;;;;9.25;59.31;100127.88;5092182;28;19924;-68
2023/11/10 11:26:06;;;;;;;;;;;;;;;9.22;59.42;100124.44;5124466;27;19977;-68
2023/11/10 11:28:33;;;;;;;;;;;;;;;9.23;59.11;100121.81;5075316;28;19920;-69
2023/11/10 11:31:10;;;;;;;;;;;;;;;9.25;59.43;100124.44;5086023;28;19932;-69
2023/11/10 11:33:50;;;;;;;;;;;;;;;9.33;59.44;100126.19;5097192;28;19930;-70
2023/11/10 11:36:16;;;;;;;;;;;;;;;9.40;59.25;100128.75;5098660;28;19984;-70
2023/11/10 11:38:42;;;;;;;;;;;;;;;9.37;59.53;100118.41;5102922;28;19919;-69
2023/11/10 11:41:11;;;;;;;;;;;;;;;9.29;59.13;100124.44;5082611;28;20270;-68
2023/11/10 11:43:47;;;;;;;;;;;;;;;9.22;58.85;100130.47;5097289;28;20022;-69
2023/11/10 11:46:13;;;;;;;;;;;;;;;9.29;59.86;100124.44;5118769;27;20270;-68
2023/11/10 11:48:39;;;;;;;;;;;;;;;9.32;59.54;100121.84;5093517;28;20374;-67
2023/11/10 11:51:07;;;;;;;;;;;;;;;9.32;59.40;100127.03;5108925;27;19920;-68
2023/11/10 11:53:35;;;;;;;;;;;;;;;9.29;59.40;100120.94;5096616;28;19920;-69
2023/11/10 11:56:01;;;;;;;;;;;;;;;9.25;59.88;100120.09;5092084;28;19924;-68
2023/11/10 11:58:27;;;;;;;;;;;;;;;9.28;59.92;100130.50;5098821;28;19926;-70
2023/11/10 12:00:57;;;;;;;;;;;;;;;9.29;59.66;100126.16;5098557;28;20023;-69
2023/11/10 12:03:23;;;;;;;;;;;;;;;9.27;59.71;100123.56;5097232;28;19924;-70
2023/11/10 12:05:48;;;;;;;;;;;;;;;9.17;59.94;100127.00;5096958;28;19924;-70
2023/11/10 12:08:16;;;;;;;;;;;;;;;9.08;60.10;100127.00;5118766;27;19926;-69
2023/11/10 12:10:45;;;;;;;;;;;;;;;9.02;60.25;100128.69;5086177;28;19924;-69
2023/11/10 12:13:33;;;;;;;;;;;;;;;8.98;60.30;100124.34;5102030;28;19966;-69
2023/11/10 12:16:08;;;;;;;;;;;;;;;8.93;60.14;100120.91;5113715;27;19955;-68
2023/11/10 12:18:35;;;;;;;;;;;;;;;8.85;59.98;100122.59;5112227;27;19927;-69
2023/11/10 12:21:01;;;;;;;;;;;;;;;8.80;60.46;100126.91;5092867;28;20606;-70
2023/11/10 12:23:29;;;;;;;;;;;;;;;8.74;60.64;100118.22;5084443;28;20373;-70
2023/11/10 12:26:10;;;;;;;;;;;;;;;8.68;60.39;100127.72;5113675;27;20399;-69
2023/11/10 12:28:39;;;;;;;;;;;;;;;8.56;60.28;100118.16;5082242;28;19920;-69
2023/11/10 12:31:05;;;;;;;;;;;;;;;8.52;60.59;100121.59;5061061;28;19964;-69
2023/11/10 12:33:32;;;;;;;;;;;;;;;8.50;60.84;100121.59;5091954;28;20166;-70
2023/11/10 12:35:59;;;;;;;;;;;;;;;8.49;60.86;100119.00;5093048;28;19920;-69
2023/11/10 12:38:33;;;;;;;;;;;;;;;8.50;61.05;100125.91;5100846;28;19923;-69
2023/11/10 12:41:00;;;;;;;;;;;;;;;8.50;60.70;100128.47;5079313;28;19920;-70
2023/11/10 12:43:26;;;;;;;;;;;;;;;8.54;61.10;100119.88;5095749;28;19927;-70
2023/11/10 12:45:52;;;;;;;;;;;;;;;8.55;61.21;100129.38;5110706;27;19928;-69
2023/11/10 12:48:18;;;;;;;;;;;;;;;8.56;61.24;100128.53;5092880;28;19920;-68
2023/11/10 12:50:45;;;;;;;;;;;;;;;8.56;61.37;100124.22;5093850;28;19977;-69